Latest Weather Observations for Millendon (Swan Valley)

IDW60801

Issued at 8:23 am WST Thursday 1 October 2020 (issued every 10 minutes, with the page automatically refreshed every 10 minutes)

About weather observations | Map of weather stations | Latest weather observations for WA | Other Formats
Station Details ID: 009281 Name: MILLENDON (SWAN VALLEY) Lat: -31.81 Lon: 116.02 Height: 15.62 m
Data from the previous 72 hours. | See also: Recent months at Millendon (Swan Valley)
Date/Time
WST
Temp
°C
App
Temp
°C
Dew
Point
°C
Rel
Hum
%
Delta-T
°C
Wind Press
QNH
hPa
Press
MSL
hPa
Rain since
9am
mm
Dir  Spd
km/h
Gust
km/h
Spd
kts
Gust
kts
01/08:00am 16.6 16.9 13.5 82 1.7 N 4 4 2 2 1014.5 1014.4 0.0
01/07:30am 15.7 16.1 13.7 88 1.1 N 4 6 2 3 1014.3 1014.3 0.0
01/07:00am 14.7 15.8 13.4 92 0.7 CALM 0 0 0 0 1014.2 1014.2 0.0
01/06:30am 14.0 14.8 12.7 92 0.7 CALM 0 0 0 0 1014.1 1014.1 0.0
01/06:00am 14.0 14.8 12.7 92 0.7 CALM 0 0 0 0 1013.9 1013.9 0.0
01/05:30am 14.1 14.7 13.0 93 0.6 NNE 2 4 1 2 1013.7 1013.7 0.0
01/05:00am 14.0 14.2 12.9 93 0.6 N 4 6 2 3 1013.5 1013.5 0.0
01/04:30am 13.9 14.4 12.8 93 0.6 N 2 4 1 2 1013.4 1013.4 0.0
01/04:00am 14.2 15.2 13.1 93 0.6 CALM 0 0 0 0 1013.3 1013.3 0.0
01/03:30am 14.2 15.2 13.1 93 0.6 CALM 0 0 0 0 1013.3 1013.3 0.0
01/03:00am 14.3 15.3 13.2 93 0.6 CALM 0 0 0 0 1013.4 1013.4 0.0
01/02:30am 14.2 14.4 13.1 93 0.6 N 4 6 2 3 1013.5 1013.5 0.0
01/02:00am 14.2 14.4 13.2 94 0.6 N 4 6 2 3 1013.7 1013.7 0.0
01/01:30am 14.1 14.7 13.1 94 0.6 N 2 6 1 3 1014.1 1014.1 0.0
01/01:00am 13.9 14.1 13.1 95 0.4 N 4 6 2 3 1014.4 1014.4 0.0
01/12:30am 13.9 14.1 13.1 95 0.4 N 4 4 2 2 1014.6 1014.6 0.0
01/12:00am 13.9 14.1 13.1 95 0.4 N 4 6 2 3 1014.7 1014.7 0.0
 
Date/Time
WST
Temp
°C
App
Temp
°C
Dew
Point
°C
Rel
Hum
%
Delta-T
°C
Wind Press
QNH
hPa
Press
MSL
hPa
Rain since
9am
mm
Dir  Spd
km/h
Gust
km/h
Spd
kts
Gust
kts
30/11:30pm 13.1 13.8 12.3 95 0.4 CALM 0 0 0 0 1014.8 1014.8 0.0
30/11:00pm 13.3 14.1 12.4 94 0.5 CALM 0 0 0 0 1015.2 1015.2 0.0
30/10:30pm 13.8 14.6 12.7 93 0.6 CALM 0 0 0 0 1015.5 1015.5 0.0
30/10:00pm 13.8 14.6 12.4 91 0.8 CALM 0 0 0 0 1015.8 1015.8 0.0
30/09:30pm 14.7 15.2 12.7 88 1.1 WNW 2 2 1 1 1016.0 1016.0 0.0
30/09:00pm 16.0 16.8 13.7 86 1.3 WNW 2 4 1 2 1016.1 1016.1 0.0
30/08:30pm 16.3 16.8 14.0 86 1.3 W 4 6 2 3 1016.0 1016.0 0.0
30/08:00pm 16.7 17.2 14.0 84 1.5 WNW 4 7 2 4 1016.0 1016.0 0.0
30/07:30pm 17.6 18.2 14.3 81 1.9 W 4 7 2 4 1015.8 1015.8 0.0
30/07:00pm 17.3 17.4 14.0 81 1.9 WSW 6 7 3 4 1015.6 1015.6 0.0
30/06:30pm 17.6 17.4 13.1 75 2.5 WSW 6 7 3 4 1015.3 1015.3 0.0
30/06:00pm 18.7 17.9 12.9 69 3.3 WSW 9 13 5 7 1015.2 1015.2 0.0
30/05:30pm 20.0 18.9 13.0 64 4.0 WSW 11 17 6 9 1015.1 1015.1 0.0
30/05:00pm 20.6 19.1 13.1 62 4.3 WSW 13 19 7 10 1015.0 1015.0 0.0
30/04:30pm 21.3 19.8 13.2 60 4.6 WSW 13 20 7 11 1015.0 1015.0 0.0
30/04:00pm 21.7 20.6 13.1 58 4.9 WSW 11 19 6 10 1014.9 1014.9 0.0
30/03:30pm 22.1 21.3 14.0 60 4.7 SW 11 19 6 10 1014.9 1014.9 0.0
30/03:00pm 21.1 20.1 13.3 61 4.5 SW 11 17 6 9 1015.1 1015.1 0.0
30/02:30pm 21.4 21.1 14.3 64 4.1 SW 9 20 5 11 1015.4 1015.4 0.0
30/02:00pm 21.3 20.9 14.2 64 4.1 W 9 15 5 8 1015.7 1015.7 0.0
30/01:30pm 20.1 19.3 14.0 68 3.5 W 11 17 6 9 1016.2 1016.2 0.0
30/01:00pm 20.0 19.8 13.7 67 3.6 NW 7 13 4 7 1016.4 1016.4 0.0
30/12:30pm 19.2 18.7 13.8 71 3.1 NNW 9 13 5 7 1016.7 1016.7 0.0
30/12:00pm 18.9 18.2 14.2 74 2.7 NNW 11 15 6 8 1017.2 1017.2 0.0
30/11:30am 18.8 18.4 14.1 74 2.7 N 9 13 5 7 1017.6 1017.6 0.0
30/11:00am 18.6 18.6 13.7 73 2.8 N 6 9 3 5 1018.0 1018.0 0.0
30/10:30am 18.6 18.4 13.0 70 3.2 N 6 11 3 6 1018.2 1018.2 0.0
30/10:00am 18.6 18.6 13.7 73 2.8 N 6 9 3 5 1018.3 1018.3 0.0
30/09:30am 18.1 18.4 14.4 79 2.1 NNE 6 11 3 6 1018.4 1018.4 0.0
30/09:00am 17.3 17.0 14.4 83 1.7 N 9 13 5 7 1018.6 1018.6 0.0
30/08:30am 16.8 16.8 14.3 85 1.4 NNE 7 11 4 6 1018.6 1018.6 0.0
30/08:00am 16.4 16.7 14.4 88 1.1 N 6 9 3 5 1018.6 1018.6 0.0
30/07:30am 15.9 16.6 14.6 92 0.7 N 4 6 2 3 1018.4 1018.4 0.0
30/07:00am 15.4 16.1 14.4 94 0.6 NW 4 6 2 3 1018.2 1018.2 0.0
30/06:30am 14.9 15.8 14.1 95 0.5 N 2 4 1 2 1018.0 1018.0 0.0
30/06:00am 14.7 15.6 13.9 95 0.4 N 2 6 1 3 1017.9 1017.9 0.0
30/05:30am 14.8 15.7 14.0 95 0.5 N 2 4 1 2 1017.7 1017.7 0.0
30/05:00am 14.8 15.3 14.0 95 0.4 NE 4 7 2 4 1017.6 1017.6 0.0
30/04:30am 14.8 14.9 14.0 95 0.5 NNE 6 6 3 3 1017.8 1017.8 0.0
30/04:00am 14.8 16.1 14.0 95 0.4 CALM 0 2 0 1 1017.7 1017.7 0.0
30/03:30am 14.9 15.8 14.1 95 0.5 N 2 4 1 2 1017.8 1017.8 0.0
30/03:00am 14.9 15.4 14.1 95 0.5 NNE 4 6 2 3 1017.7 1017.7 0.0
30/02:30am 14.9 15.8 14.1 95 0.5 E 2 4 1 2 1017.9 1017.9 0.0
30/02:00am 14.8 16.0 13.8 94 0.6 CALM 0 0 0 0 1018.0 1018.0 0.0
30/01:30am 14.9 15.8 13.9 94 0.6 NNE 2 4 1 2 1018.2 1018.2 0.0
30/01:00am 14.9 15.4 13.9 94 0.6 NNE 4 6 2 3 1018.4 1018.4 0.0
30/12:30am 14.8 16.0 13.7 93 0.6 CALM 0 0 0 0 1018.7 1018.7 0.0
30/12:00am 14.9 16.0 13.6 92 0.7 CALM 0 0 0 0 1019.0 1019.0 0.0
 
Date/Time
WST
Temp
°C
App
Temp
°C
Dew
Point
°C
Rel
Hum
%
Delta-T
°C
Wind Press
QNH
hPa
Press
MSL
hPa
Rain since
9am
mm
Dir  Spd
km/h
Gust
km/h
Spd
kts
Gust
kts
29/11:30pm 15.3 16.5 13.7 90 0.9 CALM 0 0 0 0 1019.1 1019.1 0.0
29/11:00pm 15.7 15.9 14.1 90 0.9 SSW 6 9 3 5 1019.0 1019.0 0.0
29/10:30pm 15.7 15.2 13.9 89 1.0 SSW 9 15 5 8 1019.4 1019.4 0.0
29/10:00pm 16.1 15.3 13.9 87 1.2 WSW 11 22 6 12 1019.7 1019.7 0.0
29/09:30pm 16.6 16.3 13.3 81 1.8 SW 7 11 4 6 1019.6 1019.6 0.0
29/09:00pm 16.5 16.1 12.5 77 2.2 W 6 9 3 5 1019.6 1019.6 0.0
29/08:30pm 16.6 17.0 12.4 76 2.3 WNW 2 4 1 2 1019.5 1019.5 0.0
29/08:00pm 17.1 16.8 12.6 75 2.5 W 6 7 3 4 1019.6 1019.6 0.0
29/07:30pm 17.4 17.1 12.7 74 2.6 W 6 15 3 8 1019.5 1019.5 0.0
29/07:00pm 17.5 16.9 12.4 72 2.8 W 7 13 4 7 1019.3 1019.3 0.0
29/06:30pm 17.6 16.6 12.3 71 2.9 W 9 13 5 7 1019.1 1019.1 0.0
29/06:00pm 17.8 16.7 12.0 69 3.2 W 9 15 5 8 1019.0 1019.0 0.0
29/05:30pm 18.3 15.6 11.8 66 3.6 W 17 24 9 13 1018.9 1018.9 0.0
29/05:00pm 18.8 17.1 11.1 61 4.2 W 11 19 6 10 1018.5 1018.5 0.0
29/04:30pm 19.0 16.4 12.0 64 3.9 W 17 28 9 15 1018.5 1018.5 0.0
29/04:00pm 18.0 17.8 13.5 75 2.5 WNW 7 13 4 7 1018.3 1018.3 0.0
29/03:30pm 17.0 15.6 13.3 79 2.1 WNW 13 22 7 12 1018.6 1018.6 0.0
29/03:00pm 18.5 16.1 12.7 69 3.2 WNW 17 24 9 13 1018.6 1018.6 0.0
29/02:30pm 19.1 16.7 12.6 66 3.6 WNW 17 30 9 16 1018.5 1018.5 0.0
29/02:00pm 19.4 17.4 12.7 65 3.8 WNW 15 24 8 13 1018.4 1018.4 0.0
29/01:30pm 18.3 15.2 12.3 68 3.3 W 20 33 11 18 1018.9 1018.9 0.0
29/01:00pm 19.3 17.2 12.3 64 3.9 WNW 15 22 8 12 1018.8 1018.8 0.0
29/12:30pm 19.7 17.1 12.0 61 4.3 NW 17 26 9 14 1018.8 1018.8 0.0
29/12:00pm 20.3 18.9 12.3 60 4.5 WNW 11 19 6 10 1019.1 1019.1 0.0
29/11:30am 19.6 17.6 11.6 60 4.4 WNW 13 20 7 11 1019.4 1019.4 0.0
29/11:00am 18.8 17.7 13.0 69 3.3 NNW 11 17 6 9 1019.6 1019.6 0.0
29/10:30am 18.2 17.7 13.7 75 2.6 NNW 9 15 5 8 1019.8 1019.8 0.0
29/10:00am 17.3 16.5 13.0 76 2.4 N 9 13 5 7 1019.8 1019.8 0.0
29/09:30am 16.5 15.9 13.4 82 1.7 N 9 15 5 8 1020.2 1020.2 0.0
29/09:00am 14.9 14.3 13.6 92 0.7 N 9 13 5 7 1020.3 1020.3 2.8
29/08:30am 13.7 14.3 13.1 96 0.3 N 2 4 1 2 1020.3 1020.3 2.8
29/08:00am 13.1 12.8 12.6 97 0.3 N 6 7 3 4 1020.1 1020.1 2.8
29/07:30am 11.8 12.3 11.5 98 0.2 CALM 0 0 0 0 1019.9 1019.9 2.8
29/07:00am 10.7 10.1 10.4 98 0.2 N 4 6 2 3 1019.7 1019.7 2.8
29/06:30am 9.3 7.9 9.0 98 0.1 N 6 7 3 4 1019.4 1019.4 2.8
29/06:00am 8.0 7.4 7.6 97 0.2 CALM 0 0 0 0 1019.3 1019.3 2.8
29/05:30am 8.3 7.8 7.9 97 0.2 CALM 0 0 0 0 1018.7 1018.7 2.8
29/05:00am 9.1 8.8 8.6 97 0.2 CALM 0 0 0 0 1018.3 1018.3 2.8
29/04:30am 9.2 8.9 8.7 97 0.2 CALM 0 0 0 0 1017.9 1017.9 2.8
29/04:00am 9.5 9.3 9.0 97 0.2 CALM 0 0 0 0 1017.7 1017.7 2.8
29/03:30am 10.2 10.2 9.7 97 0.3 CALM 0 4 0 2 1018.1 1018.1 2.8
29/03:00am 10.1 9.3 9.6 97 0.2 N 4 6 2 3 1018.3 1018.3 2.8
29/02:30am 9.7 9.2 9.2 97 0.2 N 2 6 1 3 1018.4 1018.4 2.8
29/02:00am 9.1 8.8 8.6 97 0.2 CALM 0 0 0 0 1018.8 1018.8 2.8
29/01:30am 8.5 8.0 7.9 96 0.3 CALM 0 0 0 0 1019.0 1019.0 2.8
29/01:00am 8.4 7.9 7.8 96 0.3 CALM 0 0 0 0 1019.3 1019.3 2.8
29/12:30am 8.7 8.3 8.1 96 0.3 CALM 0 0 0 0 1019.2 1019.2 2.8
29/12:00am 9.0 8.6 8.4 96 0.3 CALM 0 0 0 0 1019.5 1019.5 2.8
 
Date/Time
WST
Temp
°C
App
Temp
°C
Dew
Point
°C
Rel
Hum
%
Delta-T
°C
Wind Press
QNH
hPa
Press
MSL
hPa
Rain since
9am
mm
Dir  Spd
km/h
Gust
km/h
Spd
kts
Gust
kts
28/11:30pm 8.8 8.3 8.0 95 0.4 CALM 0 0 0 0 1019.7 1019.7 2.8
28/11:00pm 9.2 8.8 8.4 95 0.4 CALM 0 0 0 0 1019.6 1019.6 2.8
28/10:30pm 9.6 9.3 8.8 95 0.4 CALM 0 0 0 0 1019.8 1019.8 2.8
28/10:00pm 9.9 9.7 9.0 94 0.4 CALM 0 0 0 0 1020.0 1020.0 2.8
28/09:30pm 10.2 10.0 9.1 93 0.5 CALM 0 0 0 0 1019.9 1019.9 2.8
28/09:00pm 10.6 10.5 9.4 92 0.6 CALM 0 0 0 0 1019.9 1019.9 2.8
28/08:30pm 10.8 10.7 9.4 91 0.7 CALM 0 0 0 0 1019.8 1019.8 2.8
28/08:00pm 11.5 11.5 9.8 89 0.9 CALM 0 0 0 0 1019.8 1019.8 2.8
28/07:30pm 12.4 12.5 10.0 85 1.2 CALM 0 0 0 0 1019.6 1019.6 2.8
28/07:00pm 13.4 13.0 9.6 78 1.9 WSW 2 4 1 2 1019.2 1019.2 2.8
28/06:30pm 15.5 14.3 9.6 68 3.1 SW 6 11 3 6 1018.9 1018.9 2.8
28/06:00pm 16.4 14.3 9.8 65 3.4 SW 11 22 6 12 1018.7 1018.7 2.8
28/05:30pm 17.5 14.7 9.9 61 4.0 WSW 15 22 8 12 1018.3 1018.3 2.8
28/05:00pm 18.2 14.7 10.3 60 4.2 WSW 19 26 10 14 1018.0 1018.0 2.8
28/04:30pm 18.9 16.1 11.2 61 4.2 WSW 17 28 9 15 1017.8 1017.8 2.8
28/04:00pm 19.5 17.7 12.0 62 4.2 SW 13 20 7 11 1017.4 1017.4 2.6
28/03:30pm 19.1 17.7 13.5 70 3.2 WSW 13 19 7 10 1017.4 1017.4 2.6
28/03:00pm 18.6 18.1 13.9 74 2.7 SW 9 15 5 8 1017.4 1017.4 2.6
28/02:30pm 17.7 17.7 15.1 85 1.5 SW 9 13 5 7 1017.4 1017.4 2.6
28/02:00pm 18.3 15.8 13.6 74 2.7 SW 19 28 10 15 1017.5 1017.5 2.6
28/01:30pm 19.2 18.7 14.9 76 2.5 SSW 11 19 6 10 1017.4 1017.4 2.6
28/01:00pm 18.7 15.5 14.2 75 2.6 WSW 24 37 13 20 1017.8 1017.8 2.6
28/12:30pm 20.5 18.5 13.9 66 3.8 W 17 24 9 13 1017.5 1017.5 2.6
28/12:00pm 19.5 20.5 15.4 77 2.4 WNW 4 13 2 7 1017.6 1017.6 2.6
28/11:30am 17.9 18.5 15.3 85 1.5 NW 6 9 3 5 1018.0 1018.0 2.6
28/11:00am 17.9 18.8 15.0 83 1.7 N 4 9 2 5 1018.1 1018.1 2.2
28/10:30am 16.4 17.6 14.8 90 0.9 NE 2 7 1 4 1018.3 1018.3 2.2
28/10:00am 15.5 16.0 14.0 91 0.8 WSW 4 9 2 5 1018.6 1018.6 1.8
28/09:30am 15.8 15.6 13.6 87 1.2 N 7 13 4 7 1018.2 1018.2 0.2
28/09:00am 16.3 16.5 14.8 91 0.9 N 7 9 4 5 1018.2 1018.2 1.6
28/08:30am 14.7 14.5 13.7 94 0.6 N 7 11 4 6 1018.2 1018.2 1.6

Other formats

Comma delimited format used in spreadsheet applications
http://www.bom.gov.au/fwo/IDW60801/IDW60801.94795.axf

JavaScript Object Notation format (JSON) in row-major order
http://www.bom.gov.au/fwo/IDW60801/IDW60801.94795.json

Data quality

Most of these data are generated automatically and are frequently updated. Quality checks on data are not normally performed. It is possible for incorrect values to appear. Refer to information at About Latest Weather Observations and please check the disclaimer before using these data.